createdAt,value
2018-06-01T00:02:26.287Z,54.10
2018-06-01T00:04:53.768Z,54.00
2018-06-01T00:07:21.262Z,54.30
2018-06-01T00:09:48.785Z,54.60
2018-06-01T00:12:16.272Z,54.20
2018-06-01T00:14:43.771Z,54.40
2018-06-01T00:17:11.259Z,54.40
2018-06-01T00:19:39.505Z,55.00
2018-06-01T00:22:06.992Z,54.90
2018-06-01T00:24:35.280Z,54.90
2018-06-01T00:27:03.543Z,55.10
2018-06-01T00:29:31.819Z,55.10
2018-06-01T00:31:59.285Z,55.00
2018-06-01T00:34:27.571Z,54.90
2018-06-01T00:36:55.162Z,54.80
2018-06-01T00:39:22.609Z,55.00
2018-06-01T00:41:50.084Z,55.40
2018-06-01T00:44:17.586Z,55.40
2018-06-01T00:46:45.813Z,55.40
2018-06-01T00:49:13.298Z,55.40
2018-06-01T00:51:40.868Z,55.30
2018-06-01T00:54:08.369Z,55.60
2018-06-01T00:56:35.845Z,55.70
2018-06-01T00:59:03.328Z,55.30
2018-06-01T01:01:30.806Z,55.60
2018-06-01T01:03:59.054Z,55.80
2018-06-01T01:06:26.536Z,55.70
2018-06-01T01:08:54.762Z,55.90
2018-06-01T01:11:22.265Z,55.80
2018-06-01T01:13:50.499Z,56.30
2018-06-01T01:16:18.038Z,56.30
2018-06-01T01:18:45.556Z,56.50
2018-06-01T01:21:13.811Z,57.60
2018-06-01T01:23:41.394Z,57.00
2018-06-01T01:26:08.927Z,56.80
2018-06-01T01:28:36.497Z,57.20
2018-06-01T01:31:03.974Z,57.30
2018-06-01T01:33:32.227Z,57.70
2018-06-01T01:35:59.717Z,57.60
2018-06-01T01:38:27.184Z,57.50
2018-06-01T01:40:58.487Z,58.10
2018-06-01T01:43:26.043Z,58.10
2018-06-01T01:45:53.657Z,58.00
2018-06-01T01:48:21.153Z,58.10
2018-06-01T01:50:48.619Z,58.40
2018-06-01T01:53:16.090Z,58.80
2018-06-01T01:55:44.346Z,59.10
2018-06-01T01:58:11.858Z,59.00
2018-06-01T02:00:39.329Z,59.30
2018-06-01T02:03:06.817Z,59.50
2018-06-01T02:05:34.283Z,60.50
2018-06-01T02:08:01.771Z,60.60
2018-06-01T02:10:29.243Z,60.60
2018-06-01T02:12:56.803Z,61.70
2018-06-01T02:15:24.311Z,61.60
2018-06-01T02:17:51.791Z,62.20
2018-06-01T02:20:20.067Z,63.40
2018-06-01T02:22:48.295Z,62.70
2018-06-01T02:25:15.774Z,62.60
2018-06-01T02:27:43.334Z,63.30
2018-06-01T02:30:10.929Z,63.00
2018-06-01T02:32:38.386Z,63.50
2018-06-01T02:35:05.870Z,64.20
2018-06-01T02:37:33.336Z,64.30
2018-06-01T02:40:00.932Z,65.00
2018-06-01T02:42:29.161Z,66.10
2018-06-01T02:44:56.628Z,65.20
2018-06-01T02:47:24.142Z,65.70
2018-06-01T02:49:52.384Z,67.20
2018-06-01T02:52:19.847Z,67.00
2018-06-01T02:54:47.322Z,67.30
2018-06-01T02:57:15.583Z,68.20
2018-06-01T02:59:43.157Z,68.10
2018-06-01T03:02:11.401Z,69.10
2018-06-01T03:04:38.972Z,69.10
2018-06-01T03:07:13.549Z,69.40
2018-06-01T03:09:41.010Z,70.00
2018-06-01T03:12:08.488Z,69.40
2018-06-01T03:14:35.947Z,69.30
2018-06-01T03:17:03.511Z,69.60
2018-06-01T03:19:31.078Z,70.00
2018-06-01T03:21:58.593Z,70.00
2018-06-01T03:24:26.914Z,70.30
2018-06-01T03:26:54.379Z,70.60
2018-06-01T03:29:22.621Z,71.10
2018-06-01T03:31:50.156Z,71.10
2018-06-01T03:34:17.614Z,70.50
2018-06-01T03:36:45.152Z,70.50
2018-06-01T03:39:12.676Z,70.30
2018-06-01T03:41:40.155Z,70.50
2018-06-01T03:44:08.382Z,71.00
2018-06-01T03:46:35.954Z,71.00
2018-06-01T03:49:03.565Z,70.70
2018-06-01T03:51:31.090Z,70.30
2018-06-01T03:53:58.571Z,70.20
2018-06-01T03:56:26.061Z,70.50
2018-06-01T03:58:53.539Z,70.50
2018-06-01T04:01:21.019Z,70.30
2018-06-01T04:03:48.569Z,69.90
2018-06-01T04:06:16.120Z,69.70
2018-06-01T04:08:43.704Z,69.90
2018-06-01T04:11:11.942Z,69.90
2018-06-01T04:13:39.528Z,69.90
2018-06-01T04:16:07.092Z,69.70
2018-06-01T04:18:34.569Z,69.70
2018-06-01T04:21:02.802Z,69.20
2018-06-01T04:23:30.369Z,69.20
2018-06-01T04:25:57.844Z,69.00
2018-06-01T04:28:26.094Z,69.30
2018-06-01T04:30:55.071Z,69.20
2018-06-01T04:33:22.670Z,69.20
2018-06-01T04:35:50.236Z,69.10
2018-06-01T04:38:18.507Z,69.20
2018-06-01T04:40:46.763Z,68.90
2018-06-01T04:43:14.276Z,68.90
2018-06-01T04:45:41.795Z,68.70
2018-06-01T04:48:09.275Z,68.50
2018-06-01T04:50:36.792Z,68.80
2018-06-01T04:53:04.272Z,68.40
2018-06-01T04:55:32.495Z,68.30
2018-06-01T04:57:59.970Z,68.10
2018-06-01T05:00:27.454Z,68.10
2018-06-01T05:02:55.052Z,67.80
2018-06-01T05:05:22.551Z,67.90
2018-06-01T05:07:50.034Z,67.80
2018-06-01T05:10:18.286Z,67.60
2018-06-01T05:12:47.266Z,67.70
2018-06-01T05:15:14.727Z,67.60
2018-06-01T05:17:42.289Z,67.50
2018-06-01T05:20:09.750Z,67.30
2018-06-01T05:22:37.235Z,67.10
2018-06-01T05:25:05.467Z,67.00
2018-06-01T05:27:32.936Z,66.80
2018-06-01T05:30:00.424Z,67.40
2018-06-01T05:32:28.672Z,66.40
2018-06-01T05:34:56.160Z,66.40
2018-06-01T05:37:24.433Z,66.10
2018-06-01T05:39:52.664Z,65.90
2018-06-01T05:42:20.128Z,65.90
2018-06-01T05:44:47.595Z,66.20
2018-06-01T05:47:15.061Z,65.60
2018-06-01T05:49:43.340Z,65.80
2018-06-01T05:52:11.588Z,65.80
2018-06-01T05:54:39.084Z,65.70
2018-06-01T05:57:07.311Z,65.40
2018-06-01T05:59:34.783Z,65.30
2018-06-01T06:02:02.299Z,65.30
2018-06-01T06:04:29.783Z,65.40
2018-06-01T06:06:57.247Z,65.10
2018-06-01T06:09:24.715Z,64.80
2018-06-01T06:11:52.210Z,64.90
2018-06-01T06:14:19.688Z,64.60
2018-06-01T06:16:47.159Z,64.40
2018-06-01T06:19:14.638Z,64.50
2018-06-01T06:21:42.119Z,64.20
2018-06-01T06:24:10.383Z,63.80
2018-06-01T06:26:37.866Z,63.80
2018-06-01T06:29:05.348Z,63.80
2018-06-01T06:31:32.827Z,63.90
2018-06-01T06:34:00.306Z,64.00
2018-06-01T06:36:27.771Z,63.70
2018-06-01T06:38:55.317Z,63.70
2018-06-01T06:41:22.995Z,63.50
2018-06-01T06:43:50.531Z,63.30
2018-06-01T06:46:18.002Z,63.90
2018-06-01T06:48:46.284Z,63.20
2018-06-01T06:51:13.763Z,63.10
2018-06-01T06:53:41.295Z,64.10
2018-06-01T06:56:08.919Z,62.40
2018-06-01T06:58:36.531Z,63.70
2018-06-01T07:01:04.844Z,62.60
2018-06-01T07:03:32.422Z,62.50
2018-06-01T07:05:59.992Z,62.50
2018-06-01T07:08:27.459Z,62.00
2018-06-01T07:10:54.988Z,61.60
2018-06-01T07:13:22.567Z,61.00
2018-06-01T07:15:50.168Z,61.00
2018-06-01T07:18:18.630Z,60.00
2018-06-01T07:20:46.999Z,61.40
2018-06-01T07:23:14.560Z,61.30
2018-06-01T07:25:42.179Z,61.80
2018-06-01T07:28:09.748Z,62.30
2018-06-01T07:30:37.376Z,62.50
2018-06-01T07:33:04.940Z,61.80
2018-06-01T07:35:32.571Z,62.30
2018-06-01T07:38:01.407Z,62.90
2018-06-01T07:40:29.691Z,63.30
2018-06-01T07:42:57.170Z,63.20
2018-06-01T07:45:24.728Z,63.30
2018-06-01T07:47:52.569Z,63.10
2018-06-01T07:50:20.155Z,61.10
2018-06-01T07:52:47.709Z,61.10
2018-06-01T07:55:15.402Z,62.90
2018-06-01T07:57:43.646Z,62.20
2018-06-01T08:00:11.334Z,62.20
2018-06-01T08:02:39.579Z,59.20
2018-06-01T08:05:07.144Z,59.20
2018-06-01T08:07:34.731Z,59.20
2018-06-01T08:10:02.991Z,58.80
2018-06-01T08:12:30.595Z,58.70
2018-06-01T08:14:58.104Z,59.20
2018-06-01T08:17:25.700Z,59.30
2018-06-01T08:19:53.159Z,57.90
2018-06-01T08:22:20.679Z,58.20
2018-06-01T08:24:49.702Z,57.80
2018-06-01T08:27:17.948Z,57.20
2018-06-01T08:29:45.419Z,57.20
2018-06-01T08:32:13.707Z,57.30
2018-06-01T08:34:41.236Z,57.30
2018-06-01T08:37:08.797Z,58.30
2018-06-01T08:39:36.383Z,58.10
2018-06-01T08:42:04.719Z,57.50
2018-06-01T08:44:32.339Z,57.50
2018-06-01T08:46:59.815Z,56.90
2018-06-01T08:49:27.297Z,56.40
2018-06-01T08:51:54.779Z,57.00
2018-06-01T08:54:23.033Z,56.70
2018-06-01T08:56:51.283Z,55.50
2018-06-01T08:59:18.749Z,55.40
2018-06-01T09:01:46.224Z,55.70
2018-06-01T09:04:14.502Z,55.90
2018-06-01T09:06:42.113Z,55.90
2018-06-01T09:09:09.595Z,53.80
2018-06-01T09:11:37.083Z,54.60
2018-06-01T09:14:04.630Z,54.80
2018-06-01T09:16:32.873Z,51.20
2018-06-01T09:19:00.354Z,51.20
2018-06-01T09:21:27.816Z,51.50
2018-06-01T09:23:56.798Z,52.80
2018-06-01T09:26:24.273Z,52.70
2018-06-01T09:28:52.506Z,52.30
2018-06-01T09:31:19.975Z,52.20
2018-06-01T09:33:47.456Z,51.70
2018-06-01T09:36:14.911Z,50.40
2018-06-01T09:38:42.371Z,51.00
2018-06-01T09:41:09.831Z,51.80
2018-06-01T09:43:37.329Z,51.70
2018-06-01T09:46:04.798Z,51.10
2018-06-01T09:48:32.296Z,51.10
2018-06-01T09:50:59.861Z,50.20
2018-06-01T09:53:27.370Z,50.10
2018-06-01T09:55:54.869Z,50.20
2018-06-01T09:58:22.331Z,49.30
2018-06-01T10:00:56.238Z,49.20
2018-06-01T10:03:23.794Z,49.50
2018-06-01T10:05:51.252Z,49.30
2018-06-01T10:08:20.214Z,49.60
2018-06-01T10:10:47.711Z,49.60
2018-06-01T10:13:15.946Z,51.10
2018-06-01T10:15:43.438Z,51.00
2018-06-01T10:18:10.943Z,49.50
2018-06-01T10:20:38.598Z,49.40
2018-06-01T10:23:06.150Z,50.10
2018-06-01T10:25:33.685Z,51.40
2018-06-01T10:28:01.934Z,50.60
2018-06-01T10:30:30.935Z,50.70
2018-06-01T10:32:58.511Z,50.50
2018-06-01T10:35:26.071Z,50.50
2018-06-01T10:37:54.312Z,50.20
2018-06-01T10:40:21.790Z,50.10
2018-06-01T10:42:50.068Z,50.50
2018-06-01T10:45:17.558Z,49.80
2018-06-01T10:47:45.076Z,49.90
2018-06-01T10:50:14.047Z,51.20
2018-06-01T10:52:41.644Z,51.10
2018-06-01T10:55:09.899Z,51.00
2018-06-01T10:57:37.352Z,50.90
2018-06-01T11:00:04.822Z,51.90
2018-06-01T11:02:33.787Z,53.40
2018-06-01T11:05:01.276Z,53.40
2018-06-01T11:07:29.559Z,54.10
2018-06-01T11:09:57.833Z,54.30
2018-06-01T11:12:26.070Z,54.60
2018-06-01T11:14:53.559Z,54.50
2018-06-01T11:17:21.876Z,53.40
2018-06-01T11:19:49.402Z,53.40
2018-06-01T11:22:17.635Z,53.60
2018-06-01T11:24:45.091Z,53.60
2018-06-01T11:27:12.624Z,53.10
2018-06-01T11:29:40.111Z,52.00
2018-06-01T11:32:07.578Z,50.30
2018-06-01T11:34:35.036Z,51.20
2018-06-01T11:37:02.504Z,51.50
2018-06-01T11:39:30.059Z,50.90
2018-06-01T11:41:57.567Z,51.70
2018-06-01T11:44:25.091Z,50.10
2018-06-01T11:46:52.588Z,50.70
2018-06-01T11:49:20.121Z,49.80
2018-06-01T11:51:47.584Z,49.90
2018-06-01T11:54:15.071Z,49.20
2018-06-01T11:56:42.662Z,49.00
2018-06-01T11:59:10.130Z,49.00
2018-06-01T12:01:37.733Z,48.80
2018-06-01T12:04:05.930Z,48.50
2018-06-01T12:06:33.519Z,48.40
2018-06-01T12:09:00.984Z,46.80
2018-06-01T12:11:29.245Z,47.80
2018-06-01T12:13:56.712Z,47.80
2018-06-01T12:16:24.938Z,46.40
2018-06-01T12:18:52.445Z,46.30
2018-06-01T12:21:19.907Z,47.60
2018-06-01T12:23:48.163Z,47.30
2018-06-01T12:26:15.638Z,47.20
2018-06-01T12:28:43.955Z,44.90
2018-06-01T12:31:11.430Z,44.80
2018-06-01T12:33:38.927Z,44.20
2018-06-01T12:36:07.358Z,42.90
2018-06-01T12:38:34.835Z,42.90
2018-06-01T12:41:02.557Z,42.40
2018-06-01T12:43:30.043Z,42.30
2018-06-01T12:45:57.518Z,42.40
2018-06-01T12:48:25.010Z,41.80
2018-06-01T12:50:52.539Z,41.60
2018-06-01T12:53:20.098Z,41.70
2018-06-01T12:55:47.559Z,41.40
2018-06-01T12:58:15.027Z,41.80
2018-06-01T13:00:43.279Z,40.60
2018-06-01T13:03:10.747Z,40.50
2018-06-01T13:05:38.218Z,40.00
2018-06-01T13:08:06.546Z,42.10
2018-06-01T13:10:34.014Z,42.00
2018-06-01T13:13:01.588Z,41.30
2018-06-01T13:15:29.038Z,40.90
2018-06-01T13:17:56.534Z,40.50
2018-06-01T13:20:24.788Z,41.00
2018-06-01T13:22:52.258Z,41.00
2018-06-01T13:25:20.576Z,40.50
2018-06-01T13:27:48.096Z,40.50
2018-06-01T13:30:16.378Z,39.70
2018-06-01T13:32:44.650Z,39.10
2018-06-01T13:35:12.902Z,39.00
2018-06-01T13:37:40.525Z,39.00
2018-06-01T13:40:08.012Z,39.50
2018-06-01T13:42:36.979Z,39.50
2018-06-01T13:45:04.466Z,39.50
2018-06-01T13:47:32.018Z,39.20
2018-06-01T13:49:59.478Z,39.10
2018-06-01T13:52:26.959Z,37.70
2018-06-01T13:54:55.240Z,37.00
2018-06-01T13:57:22.703Z,36.90
2018-06-01T13:59:50.167Z,37.80
2018-06-01T14:02:17.682Z,38.10
2018-06-01T14:04:45.153Z,39.50
2018-06-01T14:07:13.422Z,39.20
2018-06-01T14:09:41.003Z,38.90
2018-06-01T14:12:08.471Z,39.00
2018-06-01T14:14:35.986Z,38.80
2018-06-01T14:17:03.447Z,39.30
2018-06-01T14:19:30.929Z,39.00
2018-06-01T14:21:59.171Z,39.40
2018-06-01T14:24:26.663Z,39.30
2018-06-01T14:26:54.916Z,40.10
2018-06-01T14:29:22.443Z,40.00
2018-06-01T14:31:49.911Z,39.60
2018-06-01T14:34:17.483Z,39.60
2018-06-01T14:36:45.030Z,38.90
2018-06-01T14:39:12.590Z,39.10
2018-06-01T14:41:40.151Z,39.00
2018-06-01T14:44:07.652Z,39.10
2018-06-01T14:46:35.112Z,38.70
2018-06-01T14:49:02.631Z,38.60
2018-06-01T14:51:30.200Z,39.10
2018-06-01T14:53:57.673Z,39.50
2018-06-01T14:56:25.923Z,38.30
2018-06-01T14:58:53.479Z,38.30
2018-06-01T15:01:21.046Z,38.80
2018-06-01T15:03:48.603Z,39.20
2018-06-01T15:06:16.851Z,39.80
2018-06-01T15:08:44.340Z,39.80
2018-06-01T15:11:12.187Z,39.40
2018-06-01T15:13:39.806Z,39.70
2018-06-01T15:16:07.275Z,40.00
2018-06-01T15:18:34.779Z,39.50
2018-06-01T15:21:02.263Z,39.40
2018-06-01T15:23:29.742Z,39.20
2018-06-01T15:25:57.199Z,40.00
2018-06-01T15:28:24.673Z,40.20
2018-06-01T15:30:52.155Z,40.80
2018-06-01T15:33:19.722Z,41.70
2018-06-01T15:35:47.217Z,41.40
2018-06-01T15:38:14.700Z,41.70
2018-06-01T15:40:42.225Z,41.60
2018-06-01T15:43:09.633Z,41.40
2018-06-01T15:45:37.878Z,41.80
2018-06-01T15:48:05.349Z,41.90
2018-06-01T15:50:32.810Z,40.70
2018-06-01T15:53:00.284Z,40.50
2018-06-01T15:55:27.777Z,40.70
2018-06-01T15:57:55.233Z,41.20
2018-06-01T16:00:22.798Z,41.60
2018-06-01T16:02:50.302Z,41.20
2018-06-01T16:05:18.549Z,40.90
2018-06-01T16:07:46.086Z,41.30
2018-06-01T16:10:13.649Z,41.20
2018-06-01T16:12:41.171Z,41.70
2018-06-01T16:15:08.636Z,42.00
2018-06-01T16:17:36.903Z,43.30
2018-06-01T16:20:04.493Z,42.70
2018-06-01T16:22:31.947Z,42.70
2018-06-01T16:24:59.540Z,42.90
2018-06-01T16:27:27.044Z,42.90
2018-06-01T16:29:55.297Z,44.10
2018-06-01T16:32:22.817Z,44.00
2018-06-01T16:34:50.280Z,44.70
2018-06-01T16:37:17.766Z,44.70
2018-06-01T16:39:45.223Z,45.10
2018-06-01T16:42:12.699Z,45.70
2018-06-01T16:44:40.204Z,46.60
2018-06-01T16:47:07.701Z,47.00
2018-06-01T16:49:36.679Z,47.70
2018-06-01T16:52:04.209Z,47.70
2018-06-01T16:54:31.716Z,49.30
2018-06-01T16:56:59.263Z,50.40
2018-06-01T16:59:26.735Z,51.10
2018-06-01T17:01:54.198Z,51.80
2018-06-01T17:04:22.447Z,53.90
2018-06-01T17:06:50.026Z,54.00
2018-06-01T17:09:18.256Z,56.00
2018-06-01T17:11:45.737Z,56.20
2018-06-01T17:14:13.241Z,57.70
2018-06-01T17:16:40.681Z,59.20
2018-06-01T17:19:08.909Z,66.10
2018-06-01T17:21:36.392Z,66.00
2018-06-01T17:24:03.874Z,70.50
2018-06-01T17:26:32.196Z,78.20
2018-06-01T17:28:59.680Z,78.10
2018-06-01T17:31:27.173Z,79.70
2018-06-01T17:33:54.649Z,80.50
2018-06-01T17:36:22.164Z,80.40
2018-06-01T17:38:50.443Z,81.80
2018-06-01T17:41:19.173Z,81.20
2018-06-01T17:43:47.877Z,80.50
2018-06-01T17:46:16.748Z,80.80
2018-06-01T17:48:45.761Z,80.60
2018-06-01T17:51:14.439Z,81.30
2018-06-01T17:53:42.291Z,81.30
2018-06-01T17:56:10.366Z,81.40
2018-06-01T17:58:38.226Z,81.00
2018-06-01T18:01:06.092Z,81.50
2018-06-01T18:03:33.856Z,82.70
2018-06-01T18:06:01.389Z,83.70
2018-06-01T18:08:29.640Z,83.90
2018-06-01T18:10:57.123Z,84.00
2018-06-01T18:13:25.382Z,85.40
2018-06-01T18:15:54.015Z,85.20
2018-06-01T18:18:21.530Z,85.10
2018-06-01T18:20:49.792Z,84.80
2018-06-01T18:23:17.276Z,84.70
2018-06-01T18:25:45.524Z,85.30
2018-06-01T18:28:13.086Z,85.40
2018-06-01T18:30:40.645Z,86.50
2018-06-01T18:33:08.123Z,85.90
2018-06-01T18:35:36.400Z,85.60
2018-06-01T18:38:03.877Z,85.40
2018-06-01T18:40:31.356Z,87.60
2018-06-01T18:42:58.822Z,86.30
2018-06-01T18:45:26.355Z,87.60
2018-06-01T18:47:53.837Z,87.90
2018-06-01T18:50:21.313Z,88.10
2018-06-01T18:52:51.491Z,90.10
2018-06-01T18:55:18.952Z,90.00
2018-06-01T18:57:46.449Z,90.50
2018-06-01T19:00:14.697Z,90.80
2018-06-01T19:02:42.189Z,90.70
2018-06-01T19:05:09.760Z,90.30
2018-06-01T19:07:37.993Z,90.10
2018-06-01T19:10:05.569Z,90.00
2018-06-01T19:12:33.046Z,90.20
2018-06-01T19:15:01.327Z,91.30
2018-06-01T19:17:29.663Z,91.50
2018-06-01T19:19:57.111Z,91.50
2018-06-01T19:22:24.600Z,90.90
2018-06-01T19:24:52.163Z,90.70
2018-06-01T19:27:19.644Z,90.70
2018-06-01T19:29:47.173Z,90.50
2018-06-01T19:32:14.889Z,90.60
2018-06-01T19:34:42.376Z,91.50
2018-06-01T19:37:09.850Z,91.80
2018-06-01T19:39:37.399Z,91.90
2018-06-01T19:42:04.870Z,91.90
2018-06-01T19:44:33.113Z,92.20
2018-06-01T19:47:00.700Z,92.20
2018-06-01T19:49:28.627Z,92.20
2018-06-01T19:51:56.141Z,92.00
2018-06-01T19:54:24.445Z,92.00
2018-06-01T19:56:51.903Z,91.90
2018-06-01T19:59:19.448Z,91.60
2018-06-01T20:01:46.928Z,92.00
2018-06-01T20:04:14.437Z,91.90
2018-06-01T20:06:42.706Z,92.50
2018-06-01T20:09:10.195Z,92.50
2018-06-01T20:11:37.698Z,92.20
2018-06-01T20:14:05.258Z,92.00
2018-06-01T20:16:32.757Z,92.10
2018-06-01T20:19:00.989Z,92.20
2018-06-01T20:21:28.571Z,92.10
2018-06-01T20:23:56.063Z,92.50
2018-06-01T20:26:23.799Z,92.80
2018-06-01T20:28:52.140Z,93.30
2018-06-01T20:31:19.710Z,93.20
2018-06-01T20:33:47.289Z,92.90
2018-06-01T20:36:15.530Z,93.30
2018-06-01T20:38:42.991Z,93.00
2018-06-01T20:41:10.463Z,93.10
2018-06-01T20:43:38.036Z,93.10
2018-06-01T20:46:05.599Z,93.00
2018-06-01T20:48:33.061Z,92.80
2018-06-01T20:51:01.294Z,93.40
2018-06-01T20:53:28.759Z,93.40
2018-06-01T20:55:56.242Z,93.70
2018-06-01T20:58:24.503Z,93.40
2018-06-01T21:00:52.071Z,93.40
2018-06-01T21:03:19.887Z,93.70
2018-06-01T21:05:47.500Z,93.90
2018-06-01T21:08:15.088Z,93.30
2018-06-01T21:10:42.573Z,93.90
2018-06-01T21:13:10.033Z,93.70
2018-06-01T21:15:37.571Z,93.70
2018-06-01T21:18:05.059Z,94.30
2018-06-01T21:20:32.818Z,94.30
2018-06-01T21:23:00.295Z,94.80
2018-06-01T21:25:27.850Z,94.80
2018-06-01T21:27:57.987Z,95.20
2018-06-01T21:30:26.478Z,95.20
2018-06-01T21:32:58.223Z,95.20
2018-06-01T21:35:26.879Z,95.10
2018-06-01T21:37:54.469Z,95.20
2018-06-01T21:40:22.036Z,95.40
2018-06-01T21:42:50.310Z,95.50
2018-06-01T21:45:18.541Z,95.40
2018-06-01T21:47:46.041Z,95.30
2018-06-01T21:50:14.287Z,95.60
2018-06-01T21:52:41.859Z,95.50
2018-06-01T21:55:09.318Z,95.80
2018-06-01T21:57:36.795Z,95.70
2018-06-01T22:00:05.029Z,95.90
2018-06-01T22:02:32.578Z,95.80
2018-06-01T22:05:00.043Z,96.00
2018-06-01T22:07:27.517Z,96.00
2018-06-01T22:09:55.055Z,95.90
2018-06-01T22:12:22.577Z,95.80
2018-06-01T22:14:50.040Z,95.50
2018-06-01T22:17:17.503Z,95.70
2018-06-01T22:19:44.986Z,95.90
2018-06-01T22:22:12.465Z,96.00
2018-06-01T22:24:39.917Z,95.60
2018-06-01T22:27:07.402Z,95.90
2018-06-01T22:29:35.627Z,96.00
2018-06-01T22:32:03.205Z,96.00
2018-06-01T22:34:30.668Z,95.90
2018-06-01T22:36:58.933Z,95.80
2018-06-01T22:39:26.400Z,95.80
2018-06-01T22:41:53.943Z,95.80
2018-06-01T22:44:21.413Z,95.60
2018-06-01T22:46:48.875Z,95.70
2018-06-01T22:49:17.152Z,95.90
2018-06-01T22:51:44.621Z,95.60
2018-06-01T22:54:12.869Z,95.40
2018-06-01T22:56:40.522Z,95.30
2018-06-01T22:59:08.091Z,95.30
2018-06-01T23:01:35.654Z,95.40
2018-06-01T23:04:03.114Z,95.50
2018-06-01T23:06:31.029Z,95.50
2018-06-01T23:08:58.501Z,95.60
2018-06-01T23:11:25.981Z,95.40
2018-06-01T23:13:53.447Z,95.50
2018-06-01T23:16:21.000Z,95.50
2018-06-01T23:18:48.567Z,95.70
2018-06-01T23:21:16.128Z,95.60
2018-06-01T23:23:43.685Z,95.80
2018-06-01T23:26:11.248Z,95.80
2018-06-01T23:28:38.800Z,96.00
2018-06-01T23:31:06.259Z,96.30
2018-06-01T23:33:33.723Z,96.10
2018-06-01T23:36:01.183Z,96.10
2018-06-01T23:38:29.455Z,96.50
2018-06-01T23:40:56.915Z,96.40
2018-06-01T23:43:24.459Z,96.90
2018-06-01T23:45:51.986Z,96.60
2018-06-01T23:48:19.487Z,96.70
2018-06-01T23:50:47.760Z,96.60
2018-06-01T23:53:15.219Z,96.30
2018-06-01T23:55:43.469Z,96.40
2018-06-01T23:58:10.931Z,96.30
